createdAt,value
2017-08-05T00:01:52.769Z,20.70
2017-08-05T00:04:21.042Z,20.90
2017-08-05T00:06:48.493Z,20.80
2017-08-05T00:09:15.949Z,20.90
2017-08-05T00:11:43.507Z,20.90
2017-08-05T00:14:11.118Z,20.90
2017-08-05T00:16:38.588Z,20.90
2017-08-05T00:19:18.124Z,20.90
2017-08-05T00:21:46.617Z,20.90
2017-08-05T00:24:18.216Z,20.90
2017-08-05T00:26:48.734Z,20.90
2017-08-05T00:29:17.522Z,20.90
2017-08-05T00:31:45.876Z,20.80
2017-08-05T00:34:14.172Z,20.70
2017-08-05T00:36:46.887Z,20.80
2017-08-05T00:39:21.818Z,20.80
2017-08-05T00:41:49.694Z,20.70
2017-08-05T00:44:17.179Z,20.80
2017-08-05T00:46:45.460Z,20.70
2017-08-05T00:49:17.373Z,20.70
2017-08-05T00:51:50.982Z,20.70
2017-08-05T00:54:32.030Z,20.60
2017-08-05T01:00:07.603Z,20.50
2017-08-05T01:02:42.895Z,20.30
2017-08-05T01:05:10.531Z,20.20
2017-08-05T01:07:39.630Z,20.10
2017-08-05T01:10:07.116Z,20.20
2017-08-05T01:12:35.686Z,20.20
2017-08-05T01:15:03.452Z,20.20
2017-08-05T01:17:30.944Z,20.30
2017-08-05T01:19:59.202Z,20.30
2017-08-05T01:22:26.660Z,20.30
2017-08-05T01:24:54.204Z,20.30
2017-08-05T01:27:21.834Z,20.30
2017-08-05T01:29:49.344Z,20.30
2017-08-05T01:32:16.905Z,20.30
2017-08-05T01:34:44.362Z,20.30
2017-08-05T01:37:12.620Z,20.30
2017-08-05T01:39:40.146Z,20.20
2017-08-05T01:42:07.624Z,20.20
2017-08-05T01:44:35.083Z,20.20
2017-08-05T01:47:02.537Z,20.20
2017-08-05T01:49:29.988Z,20.10
2017-08-05T01:51:57.456Z,20.10
2017-08-05T01:54:24.914Z,20.10
2017-08-05T01:56:52.382Z,20.10
2017-08-05T01:59:19.928Z,20.10
2017-08-05T02:01:47.494Z,20.00
2017-08-05T02:04:15.054Z,20.00
2017-08-05T02:06:42.614Z,20.00
2017-08-05T02:09:10.179Z,19.90
2017-08-05T02:11:37.730Z,19.90
2017-08-05T02:14:05.290Z,19.90
2017-08-05T02:16:32.741Z,19.80
2017-08-05T02:19:00.310Z,19.70
2017-08-05T02:21:27.860Z,19.60
2017-08-05T02:23:55.313Z,19.60
2017-08-05T02:26:22.835Z,19.50
2017-08-05T02:28:50.348Z,19.50
2017-08-05T02:31:18.605Z,19.50
2017-08-05T02:33:46.156Z,19.50
2017-08-05T02:36:13.636Z,19.40
2017-08-05T02:38:41.106Z,19.30
2017-08-05T02:41:09.349Z,19.20
2017-08-05T02:43:36.828Z,19.10
2017-08-05T02:46:04.292Z,19.20
2017-08-05T02:48:32.557Z,19.20
2017-08-05T02:51:00.103Z,19.20
2017-08-05T02:53:27.561Z,19.20
2017-08-05T02:55:55.118Z,19.20
2017-08-05T02:58:23.626Z,19.30
2017-08-05T03:00:52.001Z,19.30
2017-08-05T03:03:20.426Z,19.30
2017-08-05T03:05:47.885Z,19.30
2017-08-05T03:08:41.002Z,19.30
2017-08-05T03:11:12.330Z,19.30
2017-08-05T03:13:41.792Z,19.30
2017-08-05T03:39:58.686Z,19.00
2017-08-05T03:54:21.588Z,18.90
2017-08-05T04:00:05.169Z,19.00
2017-08-05T04:02:35.583Z,19.00
2017-08-05T04:05:12.299Z,19.10
2017-08-05T04:08:08.362Z,19.10
2017-08-05T04:10:49.241Z,19.10
2017-08-05T04:13:22.523Z,19.20
2017-08-05T04:29:08.525Z,19.10
2017-08-05T04:31:42.905Z,19.20
2017-08-05T04:34:13.710Z,19.20
2017-08-05T04:36:49.516Z,19.30
2017-08-05T04:39:20.208Z,19.30
2017-08-05T04:48:49.663Z,19.40
2017-08-05T04:54:45.527Z,19.10
2017-08-05T05:00:17.742Z,19.10
2017-08-05T05:06:05.511Z,19.20
2017-08-05T05:08:50.857Z,19.30
2017-08-05T05:14:10.887Z,19.40
2017-08-05T05:16:39.159Z,19.40
2017-08-05T05:19:07.441Z,19.40
2017-08-05T05:21:35.697Z,19.50
2017-08-05T05:24:03.157Z,19.40
2017-08-05T05:26:30.722Z,19.50
2017-08-05T05:28:58.174Z,19.60
2017-08-05T05:31:25.635Z,19.60
2017-08-05T05:33:53.093Z,19.70
2017-08-05T05:36:20.558Z,19.70
2017-08-05T05:38:48.840Z,19.80
2017-08-05T05:41:17.100Z,19.80
2017-08-05T05:43:44.668Z,19.80
2017-08-05T05:46:12.942Z,19.90
2017-08-05T05:48:41.160Z,19.90
2017-08-05T05:51:08.616Z,19.90
2017-08-05T05:53:36.073Z,19.80
2017-08-05T05:56:03.577Z,19.80
2017-08-05T05:58:31.139Z,19.90
2017-08-05T06:00:58.701Z,19.80
2017-08-05T06:03:26.984Z,20.00
2017-08-05T06:05:55.262Z,20.10
2017-08-05T06:08:23.614Z,20.00
2017-08-05T06:10:51.861Z,20.10
2017-08-05T06:13:19.370Z,20.00
2017-08-05T06:15:47.634Z,20.00
2017-08-05T06:18:15.185Z,20.00
2017-08-05T06:20:42.653Z,20.10
2017-08-05T06:23:10.213Z,20.30
2017-08-05T06:25:38.591Z,20.30
2017-08-05T06:28:06.835Z,20.30
2017-08-05T06:30:34.307Z,20.30
2017-08-05T06:33:01.779Z,20.40
2017-08-05T06:35:30.047Z,20.60
2017-08-05T06:37:57.658Z,20.60
2017-08-05T06:40:25.149Z,20.70
2017-08-05T06:42:52.759Z,20.70
2017-08-05T06:45:20.278Z,20.80
2017-08-05T06:47:47.863Z,20.90
2017-08-05T06:50:16.146Z,21.00
2017-08-05T06:52:43.725Z,20.90
2017-08-05T06:55:11.187Z,21.00
2017-08-05T06:57:38.691Z,21.20
2017-08-05T07:00:06.253Z,21.10
2017-08-05T07:02:33.718Z,21.10
2017-08-05T07:05:01.208Z,21.30
2017-08-05T07:07:28.718Z,21.30
2017-08-05T07:09:56.188Z,21.10
2017-08-05T07:12:24.549Z,21.50
2017-08-05T07:14:52.164Z,21.40
2017-08-05T07:17:19.675Z,21.50
2017-08-05T07:19:47.154Z,21.60
2017-08-05T07:22:14.670Z,21.60
2017-08-05T07:24:42.133Z,21.60
2017-08-05T07:27:09.593Z,21.50
2017-08-05T07:29:37.092Z,21.50
2017-08-05T07:32:04.558Z,21.50
2017-08-05T07:34:32.053Z,21.60
2017-08-05T07:36:59.527Z,21.60
2017-08-05T07:39:27.795Z,21.70
2017-08-05T07:41:55.277Z,21.80
2017-08-05T07:44:23.522Z,22.10
2017-08-05T07:46:51.096Z,22.00
2017-08-05T07:49:19.422Z,22.20
2017-08-05T07:51:46.941Z,22.10
2017-08-05T07:54:15.193Z,22.00
2017-08-05T07:56:42.676Z,22.00
2017-08-05T07:59:10.936Z,22.10
2017-08-05T08:01:38.511Z,22.00
2017-08-05T08:04:06.110Z,22.10
2017-08-05T08:06:33.574Z,22.20
2017-08-05T08:09:01.052Z,22.30
2017-08-05T08:11:28.619Z,22.40
2017-08-05T08:13:56.237Z,22.40
2017-08-05T08:16:23.700Z,22.40
2017-08-05T08:18:51.172Z,22.50
2017-08-05T08:21:18.785Z,22.60
2017-08-05T08:23:46.311Z,22.70
2017-08-05T08:26:14.598Z,22.70
2017-08-05T08:28:42.146Z,22.70
2017-08-05T08:31:09.638Z,22.80
2017-08-05T08:33:37.184Z,22.90
2017-08-05T08:36:05.418Z,23.10
2017-08-05T08:38:32.898Z,23.00
2017-08-05T08:41:00.458Z,23.20
2017-08-05T08:43:27.923Z,23.10
2017-08-05T08:45:56.157Z,23.20
2017-08-05T08:48:23.612Z,23.20
2017-08-05T08:50:51.099Z,23.30
2017-08-05T08:53:18.677Z,23.20
2017-08-05T08:55:46.946Z,23.50
2017-08-05T08:58:14.398Z,23.50
2017-08-05T09:00:41.901Z,23.60
2017-08-05T09:03:09.444Z,23.50
2017-08-05T09:05:36.902Z,23.30
2017-08-05T09:08:04.421Z,23.30
2017-08-05T09:10:31.932Z,23.30
2017-08-05T09:12:59.446Z,23.30
2017-08-05T09:15:26.915Z,23.40
2017-08-05T09:17:55.187Z,23.70
2017-08-05T09:20:23.404Z,23.70
2017-08-05T09:22:50.908Z,23.60
2017-08-05T09:25:18.367Z,23.60
2017-08-05T09:27:46.633Z,23.70
2017-08-05T09:30:14.113Z,23.60
2017-08-05T09:32:42.338Z,23.80
2017-08-05T09:35:09.792Z,23.80
2017-08-05T09:37:37.248Z,23.90
2017-08-05T09:40:04.726Z,24.10
2017-08-05T09:42:32.290Z,24.10
2017-08-05T09:44:59.749Z,24.10
2017-08-05T09:47:27.324Z,24.30
2017-08-05T09:49:55.571Z,24.70
2017-08-05T09:52:23.046Z,24.60
2017-08-05T09:54:50.609Z,24.80
2017-08-05T09:57:18.875Z,24.90
2017-08-05T09:59:46.337Z,24.90
2017-08-05T10:02:14.591Z,24.40
2017-08-05T10:04:42.128Z,24.40
2017-08-05T10:07:09.619Z,24.40
2017-08-05T10:09:37.130Z,24.40
2017-08-05T10:12:04.629Z,24.50
2017-08-05T10:14:32.210Z,24.40
2017-08-05T10:17:00.468Z,24.00
2017-08-05T10:19:28.027Z,23.90
2017-08-05T10:21:55.596Z,24.10
2017-08-05T10:24:23.157Z,24.00
2017-08-05T10:26:51.419Z,24.10
2017-08-05T10:29:18.894Z,24.00
2017-08-05T10:31:47.140Z,23.90
2017-08-05T10:34:14.719Z,23.90
2017-08-05T10:36:42.272Z,23.90
2017-08-05T10:39:09.724Z,23.90
2017-08-05T10:41:37.286Z,23.80
2017-08-05T10:44:04.854Z,23.70
2017-08-05T10:46:33.117Z,23.40
2017-08-05T10:49:00.578Z,23.40
2017-08-05T10:51:28.056Z,23.40
2017-08-05T10:56:30.232Z,23.20
2017-08-05T10:58:58.477Z,23.30
2017-08-05T11:01:25.956Z,23.20
2017-08-05T11:03:54.237Z,23.10
2017-08-05T11:06:22.552Z,23.00
2017-08-05T11:08:50.081Z,23.00
2017-08-05T11:11:17.555Z,22.90
2017-08-05T11:13:45.085Z,22.80
2017-08-05T11:16:13.326Z,22.60
2017-08-05T11:18:40.780Z,22.60
2017-08-05T11:21:08.248Z,22.40
2017-08-05T11:23:35.931Z,22.20
2017-08-05T11:26:04.202Z,21.90
2017-08-05T11:28:31.761Z,21.90
2017-08-05T11:30:59.237Z,21.80
2017-08-05T11:33:27.504Z,21.30
2017-08-05T11:35:55.756Z,21.30
2017-08-05T11:38:23.301Z,21.30
2017-08-05T11:40:50.774Z,21.40
2017-08-05T11:43:18.255Z,21.50
2017-08-05T11:45:46.531Z,21.40
2017-08-05T11:48:14.841Z,21.40
2017-08-05T11:50:42.397Z,21.40
2017-08-05T11:53:09.911Z,21.70
2017-08-05T11:55:37.382Z,21.70
2017-08-05T11:58:05.612Z,21.90
2017-08-05T12:00:33.190Z,21.80
2017-08-05T12:03:00.658Z,22.00
2017-08-05T12:05:29.047Z,22.10
2017-08-05T12:07:57.290Z,22.30
2017-08-05T12:10:24.863Z,22.30
2017-08-05T12:12:52.346Z,22.60
2017-08-05T12:15:20.580Z,22.80
2017-08-05T12:17:48.051Z,22.70
2017-08-05T12:20:15.532Z,22.80
2017-08-05T12:22:43.770Z,22.60
2017-08-05T12:25:11.229Z,22.50
2017-08-05T12:27:38.804Z,22.50
2017-08-05T12:30:06.274Z,22.40
2017-08-05T12:32:34.541Z,22.80
2017-08-05T12:35:02.781Z,23.10
2017-08-05T12:37:30.254Z,23.00
2017-08-05T12:39:57.750Z,23.40
2017-08-05T12:42:25.218Z,23.50
2017-08-05T12:44:52.728Z,23.60
2017-08-05T12:47:20.290Z,23.40
2017-08-05T12:49:47.851Z,23.20
2017-08-05T12:52:15.327Z,23.00
2017-08-05T12:54:43.573Z,22.70
2017-08-05T12:57:11.034Z,22.70
2017-08-05T12:59:38.598Z,22.60
2017-08-05T13:02:06.075Z,22.70
2017-08-05T13:04:34.326Z,23.00
2017-08-05T13:07:01.899Z,22.90
2017-08-05T13:09:30.180Z,22.70
2017-08-05T13:11:58.406Z,22.70
2017-08-05T13:14:25.870Z,22.60
2017-08-05T13:16:53.349Z,22.80
2017-08-05T13:19:20.911Z,22.60
2017-08-05T13:21:48.387Z,22.40
2017-08-05T13:24:16.746Z,22.50
2017-08-05T13:26:44.305Z,22.40
2017-08-05T13:29:11.762Z,22.50
2017-08-05T13:31:39.220Z,22.50
2017-08-05T13:34:06.746Z,22.40
2017-08-05T13:36:34.209Z,22.10
2017-08-05T13:39:01.704Z,22.00
2017-08-05T13:41:30.019Z,21.50
2017-08-05T13:43:57.499Z,21.50
2017-08-05T13:46:24.997Z,21.40
2017-08-05T13:48:53.353Z,21.40
2017-08-05T13:51:20.822Z,21.30
2017-08-05T13:53:49.100Z,21.20
2017-08-05T13:56:16.653Z,21.20
2017-08-05T13:58:44.888Z,21.00
2017-08-05T14:01:12.344Z,21.00
2017-08-05T14:03:39.838Z,21.00
2017-08-05T14:06:07.299Z,20.90
2017-08-05T14:08:35.578Z,20.90
2017-08-05T14:11:03.849Z,21.00
2017-08-05T14:13:31.493Z,20.90
2017-08-05T14:15:59.067Z,21.00
2017-08-05T14:18:26.546Z,21.10
2017-08-05T14:20:54.774Z,21.10
2017-08-05T14:23:22.240Z,21.10
2017-08-05T14:25:49.727Z,21.20
2017-08-05T14:28:17.987Z,21.30
2017-08-05T14:30:46.236Z,21.30
2017-08-05T14:33:13.699Z,21.30
2017-08-05T14:35:41.528Z,21.10
2017-08-05T14:38:09.067Z,20.90
2017-08-05T14:40:36.596Z,20.60
2017-08-05T14:43:04.166Z,20.60
2017-08-05T14:45:32.442Z,20.70
2017-08-05T14:48:00.670Z,20.90
2017-08-05T14:50:28.133Z,20.90
2017-08-05T14:52:55.714Z,21.40
2017-08-05T14:55:23.283Z,21.70
2017-08-05T14:57:50.841Z,22.00
2017-08-05T15:00:18.308Z,22.10
2017-08-05T15:02:46.572Z,22.00
2017-08-05T15:05:14.132Z,21.90
2017-08-05T15:07:41.595Z,22.00
2017-08-05T15:10:09.842Z,21.90
2017-08-05T15:12:37.317Z,21.90
2017-08-05T15:15:04.808Z,21.90
2017-08-05T15:17:32.278Z,21.70
2017-08-05T15:19:59.760Z,21.60
2017-08-05T15:22:27.236Z,21.40
2017-08-05T15:24:54.702Z,21.20
2017-08-05T15:27:22.161Z,21.30
2017-08-05T15:29:50.466Z,21.40
2017-08-05T15:32:18.689Z,21.50
2017-08-05T15:34:46.171Z,21.50
2017-08-05T15:37:13.731Z,21.60
2017-08-05T15:39:41.982Z,21.40
2017-08-05T15:42:09.506Z,21.40
2017-08-05T15:44:37.036Z,21.30
2017-08-05T15:47:05.280Z,20.90
2017-08-05T15:49:32.841Z,20.90
2017-08-05T15:52:00.400Z,20.80
2017-08-05T15:54:27.915Z,20.80
2017-08-05T15:56:55.379Z,20.70
2017-08-05T15:59:30.776Z,20.70
2017-08-05T16:01:59.062Z,20.50
2017-08-05T16:04:27.418Z,20.50
2017-08-05T16:06:54.978Z,20.40
2017-08-05T16:09:22.441Z,20.50
2017-08-05T16:11:50.682Z,20.80
2017-08-05T16:14:18.148Z,20.80
2017-08-05T16:16:45.719Z,20.90
2017-08-05T16:19:13.173Z,21.00
2017-08-05T16:21:40.734Z,21.10
2017-08-05T16:24:08.290Z,21.30
2017-08-05T16:26:35.845Z,21.30
2017-08-05T16:29:03.318Z,21.40
2017-08-05T16:31:31.592Z,21.60
2017-08-05T16:33:59.159Z,21.60
2017-08-05T16:36:27.393Z,21.60
2017-08-05T16:38:54.875Z,21.60
2017-08-05T16:41:22.342Z,21.60
2017-08-05T16:43:50.605Z,21.40
2017-08-05T16:46:18.170Z,21.30
2017-08-05T16:48:45.730Z,21.20
2017-08-05T16:51:13.231Z,21.20
2017-08-05T16:53:40.681Z,21.20
2017-08-05T16:56:08.159Z,21.30
2017-08-05T16:58:35.707Z,21.40
2017-08-05T17:01:03.161Z,21.70
2017-08-05T17:03:30.634Z,21.70
2017-08-05T17:05:58.237Z,21.50
2017-08-05T17:08:25.821Z,21.40
2017-08-05T17:10:53.281Z,21.50
2017-08-05T17:13:20.764Z,21.40
2017-08-05T17:15:48.374Z,21.50
2017-08-05T17:18:16.645Z,21.70
2017-08-05T17:20:44.905Z,21.80
2017-08-05T17:23:12.456Z,21.70
2017-08-05T17:25:39.923Z,21.70
2017-08-05T17:28:07.491Z,21.60
2017-08-05T17:30:35.109Z,21.60
2017-08-05T17:33:02.611Z,21.50
2017-08-05T17:35:30.904Z,21.30
2017-08-05T17:37:59.168Z,21.30
2017-08-05T17:40:27.445Z,21.20
2017-08-05T17:42:55.744Z,21.10
2017-08-05T17:45:28.908Z,21.10
2017-08-05T17:47:57.184Z,20.90
2017-08-05T17:50:25.425Z,20.90
2017-08-05T17:52:52.920Z,20.90
2017-08-05T17:55:21.159Z,20.70
2017-08-05T17:57:48.632Z,20.70
2017-08-05T18:00:16.199Z,20.70
2017-08-05T18:02:43.758Z,20.70
2017-08-05T18:05:11.264Z,20.70
2017-08-05T18:07:38.822Z,20.70
2017-08-05T18:10:06.330Z,20.60
2017-08-05T18:12:33.882Z,20.60
2017-08-05T18:15:01.446Z,20.60
2017-08-05T18:17:29.003Z,20.60
2017-08-05T18:19:56.570Z,20.60
2017-08-05T18:22:24.125Z,20.60
2017-08-05T18:24:51.630Z,20.60
2017-08-05T18:27:19.187Z,20.60
2017-08-05T18:29:46.717Z,20.50
2017-08-05T18:32:14.235Z,20.50
2017-08-05T18:34:41.735Z,20.50
2017-08-05T18:37:09.960Z,20.40
2017-08-05T18:39:37.438Z,20.30
2017-08-05T18:42:05.002Z,20.30
2017-08-05T18:44:32.463Z,20.30
2017-08-05T18:46:59.955Z,20.30
2017-08-05T18:49:27.854Z,20.30
2017-08-05T18:51:55.334Z,20.20
2017-08-05T18:54:22.897Z,20.20
2017-08-05T18:56:50.458Z,20.20
2017-08-05T18:59:17.914Z,20.20
2017-08-05T19:01:45.475Z,20.20
2017-08-05T19:04:13.025Z,20.10
2017-08-05T19:06:40.524Z,20.20
2017-08-05T19:09:08.041Z,20.10
2017-08-05T19:11:35.659Z,20.10
2017-08-05T19:14:03.158Z,20.10
2017-08-05T19:16:30.732Z,20.10
2017-08-05T19:18:58.990Z,20.00
2017-08-05T19:21:26.590Z,19.90
2017-08-05T19:23:54.074Z,20.00
2017-08-05T19:26:21.623Z,19.90
2017-08-05T19:28:49.130Z,19.80
2017-08-05T19:31:16.681Z,19.60
2017-08-05T19:33:44.246Z,19.50
2017-08-05T19:36:11.796Z,19.40
2017-08-05T19:38:39.272Z,19.50
2017-08-05T19:41:07.543Z,19.50
2017-08-05T19:43:35.021Z,19.50
2017-08-05T19:46:02.496Z,19.40
2017-08-05T19:48:30.010Z,19.40
2017-08-05T19:50:57.518Z,19.40
2017-08-05T19:53:25.028Z,19.40
2017-08-05T19:55:52.600Z,19.40
2017-08-05T19:58:20.958Z,19.30
2017-08-05T20:00:48.522Z,19.30
2017-08-05T20:03:15.996Z,19.30
2017-08-05T20:05:44.380Z,19.20
2017-08-05T20:08:11.918Z,19.20
2017-08-05T20:10:40.295Z,19.20
2017-08-05T20:13:08.552Z,19.20
2017-08-05T20:15:36.134Z,19.10
2017-08-05T20:18:04.369Z,19.10
2017-08-05T20:20:31.865Z,19.10
2017-08-05T20:23:00.128Z,19.10
2017-08-05T20:25:27.610Z,19.10
2017-08-05T20:27:55.899Z,19.10
2017-08-05T20:30:23.367Z,19.00
2017-08-05T20:32:50.858Z,19.00
2017-08-05T20:35:18.326Z,19.10
2017-08-05T20:37:45.794Z,19.10
2017-08-05T20:40:13.274Z,19.00
2017-08-05T20:42:41.532Z,19.00
2017-08-05T20:45:09.789Z,19.00
2017-08-05T20:47:38.053Z,19.00
2017-08-05T20:50:05.517Z,18.90
2017-08-05T20:52:32.985Z,18.90
2017-08-05T20:55:00.474Z,18.80
2017-08-05T20:57:27.951Z,18.80
2017-08-05T20:59:55.461Z,18.80
2017-08-05T21:02:23.022Z,18.80
2017-08-05T21:04:50.494Z,18.80
2017-08-05T21:07:18.755Z,18.80
2017-08-05T21:09:46.229Z,18.80
2017-08-05T21:12:14.492Z,18.80
2017-08-05T21:14:42.731Z,18.80
2017-08-05T21:17:10.288Z,18.80
2017-08-05T21:19:37.745Z,18.80
2017-08-05T21:22:05.205Z,18.90
2017-08-05T21:24:32.667Z,18.80
2017-08-05T21:27:00.168Z,18.80
2017-08-05T21:29:28.420Z,18.90
2017-08-05T21:31:55.900Z,18.90
2017-08-05T21:34:23.372Z,19.00
2017-08-05T21:36:50.845Z,19.00
2017-08-05T21:39:18.367Z,19.00
2017-08-05T21:41:46.620Z,19.00
2017-08-05T21:44:14.090Z,19.00
2017-08-05T21:46:42.367Z,18.90
2017-08-05T21:49:10.609Z,18.80
2017-08-05T21:51:38.068Z,18.80
2017-08-05T21:54:05.553Z,18.80
2017-08-05T21:56:33.835Z,18.60
2017-08-05T21:59:02.068Z,18.50
2017-08-05T22:01:29.549Z,18.50
2017-08-05T22:03:57.016Z,18.50
2017-08-05T22:06:25.243Z,18.50
2017-08-05T22:08:52.737Z,18.50
2017-08-05T22:11:20.336Z,18.50
2017-08-05T22:13:47.857Z,18.40
2017-08-05T22:16:15.319Z,18.40
2017-08-05T22:18:43.699Z,18.40
2017-08-05T22:21:11.954Z,18.50
2017-08-05T22:23:39.428Z,18.40
2017-08-05T22:26:07.695Z,18.30
2017-08-05T22:28:35.260Z,18.30
2017-08-05T22:31:02.714Z,18.30
2017-08-05T22:33:30.955Z,18.50
2017-08-05T22:35:58.428Z,18.40
2017-08-05T22:38:25.912Z,18.50
2017-08-05T22:40:54.225Z,18.50
2017-08-05T22:43:21.729Z,18.40
2017-08-05T22:45:49.290Z,18.50
2017-08-05T22:48:16.761Z,18.50
2017-08-05T22:50:44.998Z,18.40
2017-08-05T22:53:12.468Z,18.40
2017-08-05T22:55:39.934Z,18.40
2017-08-05T22:58:07.503Z,18.30
2017-08-05T23:00:35.717Z,18.40
2017-08-05T23:03:03.229Z,18.30
2017-08-05T23:05:31.552Z,18.30
2017-08-05T23:07:59.058Z,18.30
2017-08-05T23:10:26.617Z,18.30
2017-08-05T23:12:54.074Z,18.20
2017-08-05T23:15:21.617Z,18.20
2017-08-05T23:17:49.201Z,18.20
2017-08-05T23:20:17.469Z,18.10
2017-08-05T23:22:44.935Z,18.00
2017-08-05T23:25:13.219Z,18.10
2017-08-05T23:27:41.447Z,18.10
2017-08-05T23:30:08.913Z,18.10
2017-08-05T23:32:36.398Z,18.10
2017-08-05T23:35:04.653Z,18.10
2017-08-05T23:37:32.226Z,18.10
2017-08-05T23:39:59.794Z,18.10
2017-08-05T23:42:28.044Z,18.00
2017-08-05T23:44:55.609Z,17.90
2017-08-05T23:47:23.171Z,17.90
2017-08-05T23:49:50.651Z,17.90
2017-08-05T23:52:18.911Z,17.90
2017-08-05T23:54:47.178Z,17.90
2017-08-05T23:57:14.656Z,17.90
2017-08-05T23:59:42.921Z,17.90
